createdAt,value
2022-10-24T00:01:31.771Z,100236.47
2022-10-24T00:03:59.889Z,100231.50
2022-10-24T00:06:27.885Z,100238.81
2022-10-24T00:08:55.855Z,100235.13
2022-10-24T00:11:26.304Z,100234.25
2022-10-24T00:13:55.578Z,100233.13
2022-10-24T00:16:23.537Z,100242.41
2022-10-24T00:18:52.795Z,100241.16
2022-10-24T00:21:21.533Z,100243.44
2022-10-24T00:23:49.812Z,100252.66
2022-10-24T00:26:17.808Z,100244.13
2022-10-24T00:28:46.061Z,100239.81
2022-10-24T00:31:16.318Z,100241.06
2022-10-24T00:33:45.000Z,100243.41
2022-10-24T00:36:16.555Z,100243.81
2022-10-24T00:38:46.221Z,100245.16
2022-10-24T00:41:16.779Z,100257.47
2022-10-24T00:43:44.652Z,100253.50
2022-10-24T00:46:13.523Z,100249.81
2022-10-24T00:48:44.291Z,100238.53
2022-10-24T00:51:18.049Z,100238.59
2022-10-24T00:53:49.137Z,100232.66
2022-10-24T00:56:19.330Z,100242.75
2022-10-24T00:58:48.595Z,100231.59
2022-10-24T01:01:16.586Z,100236.50
2022-10-24T01:03:44.661Z,100225.97
2022-10-24T01:06:29.358Z,100216.09
2022-10-24T01:09:04.467Z,100217.56
2022-10-24T01:11:47.632Z,100233.44
2022-10-24T01:14:27.533Z,100230.00
2022-10-24T01:17:05.801Z,100237.78
2022-10-24T01:19:56.323Z,100239.25
2022-10-24T01:22:31.296Z,100234.63
2022-10-24T01:25:10.971Z,100238.09
2022-10-24T01:27:50.569Z,100238.25
2022-10-24T01:30:20.684Z,100242.19
2022-10-24T01:32:57.145Z,100229.53
2022-10-24T01:35:36.157Z,100227.84
2022-10-24T01:38:12.557Z,100220.41
2022-10-24T01:40:47.143Z,100213.19
2022-10-24T01:43:17.355Z,100218.28
2022-10-24T01:45:51.579Z,100210.97
2022-10-24T01:48:23.000Z,100207.63
2022-10-24T01:50:55.239Z,100213.25
2022-10-24T01:53:25.162Z,100205.28
2022-10-24T01:55:55.032Z,100201.69
2022-10-24T01:58:23.004Z,100201.81
2022-10-24T02:00:56.130Z,100198.19
2022-10-24T02:03:28.246Z,100195.66
2022-10-24T02:06:00.339Z,100195.28
2022-10-24T02:08:33.708Z,100196.72
2022-10-24T02:11:05.187Z,100198.56
2022-10-24T02:13:37.917Z,100192.66
2022-10-24T02:16:08.257Z,100196.81
2022-10-24T02:18:36.429Z,100187.03
2022-10-24T02:21:18.120Z,100182.53
2022-10-24T02:23:50.926Z,100179.09
2022-10-24T02:26:26.080Z,100165.16
2022-10-24T02:29:00.104Z,100170.06
2022-10-24T02:31:34.145Z,100150.75
2022-10-24T02:34:04.578Z,100139.03
2022-10-24T02:36:35.665Z,100138.13
2022-10-24T02:39:06.758Z,100144.34
2022-10-24T02:41:37.236Z,100161.13
2022-10-24T02:44:07.076Z,100164.81
2022-10-24T02:46:36.683Z,100158.34
2022-10-24T02:49:05.843Z,100148.19
2022-10-24T02:51:36.733Z,100152.56
2022-10-24T02:54:05.708Z,100154.19
2022-10-24T02:56:34.433Z,100147.81
2022-10-24T02:59:02.389Z,100153.59
2022-10-24T03:01:30.356Z,100147.28
2022-10-24T03:03:59.670Z,100137.56
2022-10-24T03:06:27.558Z,100138.59
2022-10-24T03:08:55.408Z,100132.63
2022-10-24T03:11:23.370Z,100127.91
2022-10-24T03:13:51.570Z,100147.81
2022-10-24T03:16:19.661Z,100142.75
2022-10-24T03:18:47.686Z,100139.13
2022-10-24T03:21:16.987Z,100135.22
2022-10-24T03:23:44.837Z,100136.59
2022-10-24T03:26:12.702Z,100135.50
2022-10-24T03:28:40.711Z,100130.75
2022-10-24T03:31:08.990Z,100124.53
2022-10-24T03:33:36.930Z,100121.75
2022-10-24T03:36:05.400Z,100123.63
2022-10-24T03:38:36.971Z,100119.03
2022-10-24T03:41:05.239Z,100125.72
2022-10-24T03:43:33.028Z,100125.09
2022-10-24T03:46:01.180Z,100119.41
2022-10-24T03:48:31.816Z,100120.09
2022-10-24T03:51:01.839Z,100128.97
2022-10-24T03:53:31.392Z,100122.09
2022-10-24T03:56:01.774Z,100132.81
2022-10-24T03:58:29.676Z,100128.59
2022-10-24T04:00:59.514Z,100139.88
2022-10-24T04:03:27.992Z,100134.81
2022-10-24T04:05:56.300Z,100133.09
2022-10-24T04:08:25.908Z,100130.13
2022-10-24T04:10:54.101Z,100133.97
2022-10-24T04:13:23.384Z,100132.03
2022-10-24T04:15:51.350Z,100128.84
2022-10-24T04:18:19.282Z,100131.22
2022-10-24T04:20:47.182Z,100131.63
2022-10-24T04:23:15.454Z,100137.19
2022-10-24T04:25:43.355Z,100141.41
2022-10-24T04:28:11.807Z,100149.28
2022-10-24T04:33:11.265Z,100143.56
2022-10-24T04:35:39.201Z,100145.28
2022-10-24T04:38:07.729Z,100133.78
2022-10-24T04:40:35.892Z,100130.50
2022-10-24T04:43:03.732Z,100131.81
2022-10-24T04:45:31.626Z,100130.97
2022-10-24T04:48:01.011Z,100125.91
2022-10-24T04:50:30.121Z,100132.94
2022-10-24T04:52:58.244Z,100130.94
2022-10-24T04:55:27.519Z,100136.94
2022-10-24T04:57:56.582Z,100134.84
2022-10-24T05:00:24.920Z,100127.47
2022-10-24T05:02:56.753Z,100138.47
2022-10-24T05:05:33.041Z,100138.81
2022-10-24T05:08:00.935Z,100143.09
2022-10-24T05:10:32.671Z,100144.06
2022-10-24T05:13:00.823Z,100146.72
2022-10-24T05:15:29.993Z,100131.94
2022-10-24T05:18:02.998Z,100131.94
2022-10-24T05:20:38.001Z,100131.19
2022-10-24T05:23:06.230Z,100130.28
2022-10-24T05:25:34.337Z,100126.06
2022-10-24T05:28:02.214Z,100117.66
2022-10-24T05:30:30.166Z,100116.34
2022-10-24T05:32:58.148Z,100118.56
2022-10-24T05:35:26.589Z,100107.47
2022-10-24T05:37:56.061Z,100118.75
2022-10-24T05:40:24.019Z,100109.00
2022-10-24T05:42:52.348Z,100120.25
2022-10-24T05:45:20.574Z,100124.44
2022-10-24T05:47:48.945Z,100116.88
2022-10-24T05:50:16.890Z,100126.31
2022-10-24T05:52:47.246Z,100124.53
2022-10-24T05:55:18.276Z,100125.72
2022-10-24T05:57:47.207Z,100122.56
2022-10-24T06:00:17.698Z,100121.19
2022-10-24T06:05:15.906Z,100118.25
2022-10-24T06:07:44.386Z,100122.78
2022-10-24T06:10:13.977Z,100124.53
2022-10-24T06:12:43.687Z,100128.97
2022-10-24T06:15:14.328Z,100132.59
2022-10-24T06:17:42.275Z,100130.00
2022-10-24T06:20:11.007Z,100125.59
2022-10-24T06:22:40.427Z,100130.97
2022-10-24T06:25:09.054Z,100120.47
2022-10-24T06:27:36.936Z,100127.75
2022-10-24T06:30:07.912Z,100134.44
2022-10-24T06:32:36.394Z,100130.13
2022-10-24T06:35:06.995Z,100133.31
2022-10-24T06:37:35.536Z,100125.13
2022-10-24T06:40:03.479Z,100123.00
2022-10-24T06:42:31.857Z,100130.00
2022-10-24T06:47:34.019Z,100135.84
2022-10-24T06:50:02.006Z,100142.16
2022-10-24T06:52:29.928Z,100153.69
2022-10-24T06:54:57.834Z,100157.25
2022-10-24T06:57:25.863Z,100149.53
2022-10-24T06:59:53.985Z,100138.13
2022-10-24T07:02:22.091Z,100147.16
2022-10-24T07:04:51.458Z,100158.00
2022-10-24T07:07:21.230Z,100157.25
2022-10-24T07:09:53.991Z,100165.44
2022-10-24T07:12:22.323Z,100171.34
2022-10-24T07:14:50.221Z,100168.22
2022-10-24T07:17:19.043Z,100163.38
2022-10-24T07:19:46.935Z,100159.00
2022-10-24T07:22:16.251Z,100153.72
2022-10-24T07:24:44.116Z,100160.47
2022-10-24T07:27:12.027Z,100165.56
2022-10-24T07:29:40.294Z,100173.69
2022-10-24T07:32:08.107Z,100174.19
2022-10-24T07:34:36.018Z,100170.72
2022-10-24T07:37:05.024Z,100170.88
2022-10-24T07:39:34.527Z,100170.59
2022-10-24T07:42:02.432Z,100178.13
2022-10-24T07:44:30.399Z,100165.44
2022-10-24T07:46:58.317Z,100171.41
2022-10-24T07:49:29.076Z,100171.06
2022-10-24T07:51:59.352Z,100170.84
2022-10-24T07:54:30.650Z,100166.63
2022-10-24T07:57:02.326Z,100171.75
2022-10-24T07:59:41.653Z,100165.38
2022-10-24T08:02:13.919Z,100166.25
2022-10-24T08:04:42.472Z,100158.41
2022-10-24T08:07:13.645Z,100153.88
2022-10-24T08:09:43.501Z,100159.03
2022-10-24T08:12:12.877Z,100162.81
2022-10-24T08:14:41.931Z,100169.22
2022-10-24T08:17:10.728Z,100166.66
2022-10-24T08:19:43.727Z,100169.56
2022-10-24T08:22:13.139Z,100162.19
2022-10-24T08:24:41.260Z,100154.63
2022-10-24T08:27:09.248Z,100155.81
2022-10-24T08:29:38.613Z,100157.81
2022-10-24T08:32:07.397Z,100154.72
2022-10-24T08:34:35.750Z,100152.44
2022-10-24T08:37:04.510Z,100150.19
2022-10-24T08:39:32.456Z,100149.31
2022-10-24T08:42:04.262Z,100146.75
2022-10-24T08:44:35.667Z,100146.38
2022-10-24T08:47:12.054Z,100150.63
2022-10-24T08:49:47.814Z,100145.00
2022-10-24T08:52:24.911Z,100154.63
2022-10-24T08:54:55.083Z,100156.69
2022-10-24T08:57:27.402Z,100152.53
2022-10-24T08:59:59.926Z,100156.59
2022-10-24T09:02:34.262Z,100144.75
2022-10-24T09:05:05.812Z,100139.50
2022-10-24T09:07:33.924Z,100147.50
2022-10-24T09:10:07.906Z,100145.03
2022-10-24T09:12:37.197Z,100139.34
2022-10-24T09:15:15.920Z,100133.97
2022-10-24T09:17:46.186Z,100136.06
2022-10-24T09:20:25.612Z,100129.34
2022-10-24T09:22:54.750Z,100133.28
2022-10-24T09:25:24.544Z,100128.56
2022-10-24T09:27:52.959Z,100133.66
2022-10-24T09:30:22.620Z,100141.53
2022-10-24T09:32:52.764Z,100149.22
2022-10-24T09:35:22.908Z,100143.97
2022-10-24T09:37:52.559Z,100139.78
2022-10-24T09:40:23.864Z,100147.94
2022-10-24T09:42:56.033Z,100147.91
2022-10-24T09:45:39.398Z,100159.16
2022-10-24T09:48:19.176Z,100159.06
2022-10-24T09:50:49.153Z,100163.75
2022-10-24T09:53:25.494Z,100164.75
2022-10-24T09:55:55.887Z,100166.44
2022-10-24T09:58:29.868Z,100153.22
2022-10-24T10:01:00.712Z,100163.03
2022-10-24T10:03:30.545Z,100153.56
2022-10-24T10:06:00.115Z,100156.41
2022-10-24T10:08:30.772Z,100164.47
2022-10-24T10:11:05.165Z,100157.16
2022-10-24T10:13:38.860Z,100156.91
2022-10-24T10:16:10.747Z,100154.50
2022-10-24T10:18:48.523Z,100163.28
2022-10-24T10:21:18.618Z,100161.59
2022-10-24T10:23:48.054Z,100172.47
2022-10-24T10:26:23.890Z,100172.44
2022-10-24T10:28:58.379Z,100154.22
2022-10-24T10:31:34.734Z,100167.91
2022-10-24T10:34:16.076Z,100164.28
2022-10-24T10:36:57.011Z,100166.09
2022-10-24T10:39:50.031Z,100174.06
2022-10-24T10:42:23.253Z,100170.59
2022-10-24T10:45:04.959Z,100175.69
2022-10-24T10:47:39.833Z,100169.84
2022-10-24T10:50:30.498Z,100169.56
2022-10-24T10:53:06.027Z,100165.66
2022-10-24T10:55:46.551Z,100182.03
2022-10-24T10:58:26.894Z,100181.56
2022-10-24T11:01:07.759Z,100180.16
2022-10-24T11:03:44.450Z,100180.72
2022-10-24T11:06:29.460Z,100186.56
2022-10-24T11:09:32.635Z,100179.59
2022-10-24T11:12:09.941Z,100189.88
2022-10-24T11:14:41.112Z,100195.31
2022-10-24T11:17:15.640Z,100187.47
2022-10-24T11:19:56.031Z,100183.75
2022-10-24T11:22:28.225Z,100202.72
2022-10-24T11:25:01.739Z,100195.28
2022-10-24T11:27:38.067Z,100190.47
2022-10-24T11:30:13.249Z,100190.19
2022-10-24T11:32:48.327Z,100179.16
2022-10-24T11:35:25.626Z,100190.28
2022-10-24T11:38:00.410Z,100186.72
2022-10-24T11:40:31.267Z,100189.75
2022-10-24T11:43:06.365Z,100191.28
2022-10-24T11:45:46.942Z,100199.28
2022-10-24T11:48:21.216Z,100197.59
2022-10-24T11:50:55.066Z,100199.75
2022-10-24T11:53:48.483Z,100195.59
2022-10-24T11:56:24.962Z,100196.56
2022-10-24T11:59:00.193Z,100207.41
2022-10-24T12:01:59.799Z,100201.56
2022-10-24T12:05:00.543Z,100195.00
2022-10-24T12:07:59.996Z,100197.16
2022-10-24T12:10:46.176Z,100206.66
2022-10-24T12:13:36.631Z,100203.88
2022-10-24T12:16:13.961Z,100204.00
2022-10-24T12:18:44.663Z,100201.31
2022-10-24T12:21:16.931Z,100202.13
2022-10-24T12:23:55.490Z,100197.44
2022-10-24T12:26:29.663Z,100198.16
2022-10-24T12:28:59.319Z,100197.84
2022-10-24T12:31:30.237Z,100204.97
2022-10-24T12:34:34.481Z,100202.28
2022-10-24T12:37:05.478Z,100200.88
2022-10-24T12:39:36.052Z,100204.31
2022-10-24T12:42:06.355Z,100214.00
2022-10-24T12:44:41.174Z,100213.75
2022-10-24T12:47:29.393Z,100210.16
2022-10-24T12:49:58.199Z,100217.72
2022-10-24T12:52:52.475Z,100218.19
2022-10-24T12:56:07.585Z,100209.81
2022-10-24T12:58:37.665Z,100223.56
2022-10-24T13:01:10.629Z,100229.06
2022-10-24T13:04:00.365Z,100229.25
2022-10-24T13:06:37.036Z,100231.84
2022-10-24T13:09:24.629Z,100220.28
2022-10-24T13:12:10.168Z,100219.97
2022-10-24T13:15:04.475Z,100215.53
2022-10-24T13:17:40.443Z,100222.06
2022-10-24T13:20:19.696Z,100230.88
2022-10-24T13:22:53.153Z,100239.91
2022-10-24T13:25:33.787Z,100229.53
2022-10-24T13:28:40.421Z,100239.94
2022-10-24T13:31:42.743Z,100226.66
2022-10-24T13:34:33.624Z,100230.72
2022-10-24T13:37:06.513Z,100238.66
2022-10-24T13:39:40.374Z,100242.91
2022-10-24T13:42:27.939Z,100230.38
2022-10-24T13:45:00.898Z,100248.13
2022-10-24T13:47:33.141Z,100245.47
2022-10-24T13:50:07.571Z,100246.50
2022-10-24T13:52:49.087Z,100239.91
2022-10-24T13:55:26.461Z,100244.13
2022-10-24T13:58:02.030Z,100239.38
2022-10-24T14:00:32.656Z,100244.63
2022-10-24T14:03:02.408Z,100239.03
2022-10-24T14:05:35.366Z,100230.38
2022-10-24T14:08:04.234Z,100230.22
2022-10-24T14:10:32.769Z,100225.13
2022-10-24T14:13:01.511Z,100229.25
2022-10-24T14:15:31.968Z,100221.47
2022-10-24T14:18:02.481Z,100223.59
2022-10-24T14:20:34.049Z,100231.38
2022-10-24T14:23:02.179Z,100226.03
2022-10-24T14:25:33.644Z,100217.44
2022-10-24T14:28:10.440Z,100225.56
2022-10-24T14:30:38.679Z,100233.34
2022-10-24T14:33:22.954Z,100224.94
2022-10-24T14:35:56.670Z,100226.69
2022-10-24T14:38:27.924Z,100219.94
2022-10-24T14:41:08.210Z,100228.63
2022-10-24T14:43:39.892Z,100228.00
2022-10-24T14:46:32.271Z,100221.00
2022-10-24T14:49:03.385Z,100221.56
2022-10-24T14:51:38.989Z,100236.78
2022-10-24T14:54:19.956Z,100227.47
2022-10-24T14:56:48.720Z,100226.69
2022-10-24T14:59:24.990Z,100214.00
2022-10-24T15:01:58.661Z,100214.41
2022-10-24T15:04:32.778Z,100214.72
2022-10-24T15:07:16.290Z,100217.28
2022-10-24T15:10:04.261Z,100220.66
2022-10-24T15:12:40.328Z,100217.09
2022-10-24T15:15:33.228Z,100208.97
2022-10-24T15:18:09.759Z,100215.53
2022-10-24T15:20:40.569Z,100217.28
2022-10-24T15:23:21.347Z,100222.84
2022-10-24T15:26:01.777Z,100228.88
2022-10-24T15:28:38.652Z,100233.53
2022-10-24T15:31:11.434Z,100238.78
2022-10-24T15:36:22.903Z,100245.34
2022-10-24T15:38:56.639Z,100252.84
2022-10-24T15:41:24.632Z,100253.09
2022-10-24T15:43:52.607Z,100264.28
2022-10-24T15:46:21.929Z,100270.50
2022-10-24T15:48:50.184Z,100276.59
2022-10-24T15:51:21.865Z,100283.75
2022-10-24T15:53:52.688Z,100286.69
2022-10-24T15:56:24.279Z,100280.25
2022-10-24T15:58:52.820Z,100275.84
2022-10-24T16:01:28.541Z,100282.75
2022-10-24T16:03:57.327Z,100284.06
2022-10-24T16:06:25.673Z,100290.69
2022-10-24T16:08:55.877Z,100280.31
2022-10-24T16:11:29.032Z,100290.59
2022-10-24T16:13:58.259Z,100294.94
2022-10-24T16:16:26.130Z,100295.53
2022-10-24T16:18:53.953Z,100291.59
2022-10-24T16:21:23.075Z,100300.22
2022-10-24T16:26:25.097Z,100306.34
2022-10-24T16:28:53.371Z,100297.75
2022-10-24T16:31:23.474Z,100293.31
2022-10-24T16:33:51.800Z,100298.34
2022-10-24T16:36:22.341Z,100302.84
2022-10-24T16:38:53.820Z,100298.94
2022-10-24T16:41:25.250Z,100311.38
2022-10-24T16:43:56.962Z,100317.06
2022-10-24T16:46:26.885Z,100323.00
2022-10-24T16:48:55.097Z,100315.53
2022-10-24T16:51:25.574Z,100321.88
2022-10-24T16:53:53.480Z,100322.28
2022-10-24T16:56:21.780Z,100318.78
2022-10-24T16:58:49.701Z,100321.94
2022-10-24T17:01:19.287Z,100324.50
2022-10-24T17:03:47.321Z,100320.00
2022-10-24T17:06:15.982Z,100312.28
2022-10-24T17:08:44.184Z,100318.28
2022-10-24T17:11:39.501Z,100328.63
2022-10-24T17:14:00.472Z,100327.47
2022-10-24T17:16:29.885Z,100326.94
2022-10-24T17:19:14.626Z,100320.44
2022-10-24T17:21:44.297Z,100321.78
2022-10-24T17:24:13.657Z,100315.31
2022-10-24T17:26:42.399Z,100316.91
2022-10-24T17:29:14.076Z,100320.97
2022-10-24T17:31:43.690Z,100336.81
2022-10-24T17:34:11.842Z,100338.13
2022-10-24T17:36:41.414Z,100336.41
2022-10-24T17:39:14.518Z,100347.44
2022-10-24T17:41:42.817Z,100347.13
2022-10-24T17:44:16.832Z,100350.94
2022-10-24T17:46:46.800Z,100341.09
2022-10-24T17:49:20.835Z,100345.09
2022-10-24T17:51:50.095Z,100353.78
2022-10-24T17:54:18.724Z,100349.84
2022-10-24T17:56:46.658Z,100361.06
2022-10-24T17:59:14.751Z,100354.31
2022-10-24T18:01:43.167Z,100357.97
2022-10-24T18:04:12.701Z,100355.72
2022-10-24T18:06:42.173Z,100354.03
2022-10-24T18:09:12.103Z,100355.16
2022-10-24T18:11:40.328Z,100359.28
2022-10-24T18:14:08.599Z,100361.50
2022-10-24T18:16:37.229Z,100367.22
2022-10-24T18:19:05.374Z,100364.66
2022-10-24T18:21:50.577Z,100378.94
2022-10-24T18:24:18.570Z,100366.84
2022-10-24T18:26:47.821Z,100374.63
2022-10-24T18:29:15.730Z,100376.16
2022-10-24T18:31:43.670Z,100381.72
2022-10-24T18:34:11.530Z,100383.22
2022-10-24T18:36:39.764Z,100389.06
2022-10-24T18:39:10.521Z,100395.75
2022-10-24T18:41:46.512Z,100396.34
2022-10-24T18:44:23.360Z,100389.13
2022-10-24T18:46:53.258Z,100397.69
2022-10-24T18:49:21.910Z,100402.34
2022-10-24T18:51:56.605Z,100398.53
2022-10-24T18:54:26.137Z,100396.22
2022-10-24T18:56:59.101Z,100406.72
2022-10-24T18:59:27.875Z,100410.81
2022-10-24T19:02:12.368Z,100406.00
2022-10-24T19:04:43.685Z,100404.28
2022-10-24T19:07:12.414Z,100413.63
2022-10-24T19:09:42.510Z,100398.31
2022-10-24T19:12:11.100Z,100393.16
2022-10-24T19:14:39.629Z,100395.09
2022-10-24T19:17:07.877Z,100397.00
2022-10-24T19:19:36.163Z,100392.13
2022-10-24T19:22:04.105Z,100389.06
2022-10-24T19:24:32.347Z,100386.69
2022-10-24T19:27:02.282Z,100383.69
2022-10-24T19:29:30.436Z,100384.53
2022-10-24T19:31:58.609Z,100388.47
2022-10-24T19:34:28.304Z,100391.69
2022-10-24T19:36:57.508Z,100390.50
2022-10-24T19:39:28.176Z,100402.91
2022-10-24T19:41:59.433Z,100394.88
2022-10-24T19:44:28.726Z,100402.41
2022-10-24T19:46:56.701Z,100395.38
2022-10-24T19:49:25.091Z,100406.81
2022-10-24T19:51:54.178Z,100409.41
2022-10-24T19:54:22.099Z,100409.19
2022-10-24T19:56:50.504Z,100415.28
2022-10-24T19:59:18.399Z,100413.09
2022-10-24T20:01:48.290Z,100421.47
2022-10-24T20:04:16.346Z,100419.56
2022-10-24T20:06:46.515Z,100427.75
2022-10-24T20:09:14.657Z,100423.81
2022-10-24T20:11:42.632Z,100410.66
2022-10-24T20:14:10.688Z,100430.78
2022-10-24T20:16:38.597Z,100432.72
2022-10-24T20:19:07.881Z,100438.97
2022-10-24T20:21:37.534Z,100438.78
2022-10-24T20:24:06.196Z,100429.88
2022-10-24T20:26:34.303Z,100432.00
2022-10-24T20:29:02.560Z,100435.19
2022-10-24T20:31:32.496Z,100438.16
2022-10-24T20:34:06.714Z,100433.53
2022-10-24T20:36:38.167Z,100439.16
2022-10-24T20:39:06.875Z,100439.59
2022-10-24T20:41:35.589Z,100437.53
2022-10-24T20:44:03.999Z,100439.38
2022-10-24T20:46:32.254Z,100442.72
2022-10-24T20:49:00.170Z,100439.78
2022-10-24T20:51:28.221Z,100450.72
2022-10-24T20:53:57.625Z,100452.09
2022-10-24T20:56:26.812Z,100452.06
2022-10-24T20:58:56.236Z,100448.88
2022-10-24T21:01:25.987Z,100457.28
2022-10-24T21:03:55.000Z,100455.09
2022-10-24T21:06:24.816Z,100456.38
2022-10-24T21:08:54.506Z,100453.56
2022-10-24T21:11:26.385Z,100457.19
2022-10-24T21:13:55.432Z,100467.38
2022-10-24T21:16:23.956Z,100462.59
2022-10-24T21:18:54.101Z,100470.50
2022-10-24T21:21:23.471Z,100470.63
2022-10-24T21:23:52.818Z,100474.97
2022-10-24T21:26:21.609Z,100484.19
2022-10-24T21:28:59.393Z,100483.09
2022-10-24T21:31:36.908Z,100486.19
2022-10-24T21:36:38.771Z,100485.91
2022-10-24T21:39:06.784Z,100483.66
2022-10-24T21:41:35.025Z,100489.19
2022-10-24T21:44:04.401Z,100487.19
2022-10-24T21:46:33.310Z,100490.94
2022-10-24T21:49:01.699Z,100483.31
2022-10-24T21:51:32.847Z,100476.63
2022-10-24T21:54:02.279Z,100485.22
2022-10-24T21:56:34.719Z,100478.75
2022-10-24T21:59:06.502Z,100482.50
2022-10-24T22:01:37.427Z,100480.34
2022-10-24T22:04:06.937Z,100496.44
2022-10-24T22:06:36.688Z,100503.84
2022-10-24T22:09:06.351Z,100495.53
2022-10-24T22:11:35.801Z,100502.56
2022-10-24T22:14:07.132Z,100506.88
2022-10-24T22:16:35.369Z,100507.47
2022-10-24T22:19:05.787Z,100512.94
2022-10-24T22:21:35.675Z,100510.97
2022-10-24T22:24:08.733Z,100516.28
2022-10-24T22:26:37.059Z,100522.47
2022-10-24T22:29:07.807Z,100513.53
2022-10-24T22:31:36.896Z,100515.69
2022-10-24T22:34:05.223Z,100514.22
2022-10-24T22:36:55.235Z,100519.75
2022-10-24T22:39:25.505Z,100523.75
2022-10-24T22:41:54.395Z,100525.16
2022-10-24T22:44:25.383Z,100510.50
2022-10-24T22:47:16.105Z,100508.63
2022-10-24T22:49:53.544Z,100516.34
2022-10-24T22:52:21.921Z,100515.19
2022-10-24T22:54:51.367Z,100518.59
2022-10-24T22:57:19.970Z,100521.72
2022-10-24T22:59:49.949Z,100525.81
2022-10-24T23:02:28.235Z,100517.38
2022-10-24T23:05:03.828Z,100529.03
2022-10-24T23:07:41.193Z,100526.97
2022-10-24T23:10:13.846Z,100540.38
2022-10-24T23:12:42.478Z,100545.59
2022-10-24T23:15:16.315Z,100534.69
2022-10-24T23:17:45.973Z,100530.38
2022-10-24T23:20:24.078Z,100542.22
2022-10-24T23:23:03.030Z,100556.25
2022-10-24T23:25:43.619Z,100552.09
2022-10-24T23:28:20.139Z,100553.63
2022-10-24T23:30:49.939Z,100553.16
2022-10-24T23:33:26.947Z,100550.63
2022-10-24T23:35:58.569Z,100549.28
2022-10-24T23:38:27.502Z,100551.25
2022-10-24T23:40:56.184Z,100541.78
2022-10-24T23:43:24.691Z,100562.19
2022-10-24T23:46:00.320Z,100555.75
2022-10-24T23:48:44.661Z,100562.38
2022-10-24T23:51:16.140Z,100559.25
2022-10-24T23:53:50.549Z,100554.88
2022-10-24T23:56:20.062Z,100548.94
2022-10-24T23:58:48.136Z,100556.41
